Time;durP1;ratioP1;P1;durP2;ratioP2;P2;SDS_P1;SDS_P2;PMS_P1;PMS_P2;Temp;Humidity;BMP_temperature;BMP_pressure;BME280_temperature;BME280_humidity;BME280_pressure;Samples;Min_cycle;Max_cycle;Signal;HPM_P1;HPM_P2
2023/01/23 00:00:58;;;;;;;43.30;25.47;;;4.50;99.90;;;;;;5015817;28;20443;-56
2023/01/23 00:03:25;;;;;;;38.03;24.53;;;4.50;99.90;;;;;;5015399;28;20842;-55
2023/01/23 00:05:58;;;;;;;41.80;25.43;;;4.40;99.90;;;;;;5016062;28;20455;-55
2023/01/23 00:08:25;;;;;;;40.27;23.83;;;4.50;99.90;;;;;;5015701;28;20487;-55
2023/01/23 00:10:53;;;;;;;42.10;25.50;;;4.50;99.90;;;;;;5015633;28;20443;-56
2023/01/23 00:13:21;;;;;;;45.77;26.80;;;4.40;99.90;;;;;;5015487;28;20485;-56
2023/01/23 00:15:48;;;;;;;45.10;26.63;;;4.40;99.90;;;;;;5015813;28;20453;-56
2023/01/23 00:18:15;;;;;;;49.27;26.10;;;4.40;99.90;;;;;;5015516;28;20438;-56
2023/01/23 00:20:42;;;;;;;41.53;24.80;;;4.40;99.90;;;;;;5015159;28;20868;-55
2023/01/23 00:23:09;;;;;;;48.00;28.37;;;4.40;99.90;;;;;;5015311;28;20485;-56
2023/01/23 00:25:36;;;;;;;55.13;27.53;;;4.50;99.90;;;;;;5015534;28;20451;-56
2023/01/23 00:28:05;;;;;;;46.70;28.33;;;4.50;99.90;;;;;;5015272;28;20482;-56
2023/01/23 00:30:31;;;;;;;44.13;26.90;;;4.50;99.90;;;;;;5015211;28;20468;-56
2023/01/23 00:32:58;;;;;;;42.20;25.47;;;4.50;99.90;;;;;;5015159;28;20473;-56
2023/01/23 00:35:25;;;;;;;49.43;26.20;;;4.50;99.90;;;;;;5014934;28;20978;-56
2023/01/23 00:37:52;;;;;;;49.20;26.47;;;4.50;99.90;;;;;;5015166;28;20445;-56
2023/01/23 00:40:18;;;;;;;37.13;23.57;;;4.50;99.90;;;;;;5015046;28;20454;-55
2023/01/23 00:42:45;;;;;;;40.87;23.67;;;4.50;99.90;;;;;;5014580;28;20489;-55
2023/01/23 00:45:13;;;;;;;46.33;25.70;;;4.50;99.90;;;;;;5015018;28;20812;-56
2023/01/23 00:47:40;;;;;;;39.47;23.00;;;4.50;99.90;;;;;;5014884;28;20483;-56
2023/01/23 00:50:07;;;;;;;39.57;23.37;;;4.50;99.90;;;;;;5014299;28;20824;-55
2023/01/23 00:52:33;;;;;;;44.67;24.10;;;4.50;99.90;;;;;;5014758;28;20478;-56
2023/01/23 00:55:00;;;;;;;45.67;23.80;;;4.50;99.90;;;;;;5014912;28;20517;-55
2023/01/23 00:57:27;;;;;;;35.43;21.53;;;4.50;99.90;;;;;;5014882;28;20501;-55
2023/01/23 00:59:54;;;;;;;37.03;22.90;;;4.50;99.90;;;;;;5015172;28;20833;-55
2023/01/23 01:02:22;;;;;;;32.70;22.40;;;4.50;99.90;;;;;;5014708;28;20480;-55
2023/01/23 01:04:48;;;;;;;36.30;22.30;;;4.50;99.90;;;;;;5014406;28;20866;-55
2023/01/23 01:07:15;;;;;;;34.63;21.13;;;4.60;99.90;;;;;;5014566;28;20490;-56
2023/01/23 01:09:42;;;;;;;33.30;20.07;;;4.60;99.90;;;;;;5014561;28;20447;-55
2023/01/23 01:12:09;;;;;;;40.10;21.50;;;4.60;99.90;;;;;;5014208;28;20998;-56
2023/01/23 01:14:35;;;;;;;36.50;20.60;;;4.50;99.90;;;;;;5014682;28;20465;-55
2023/01/23 01:17:02;;;;;;;34.53;20.07;;;4.50;99.90;;;;;;5014555;28;20449;-56
2023/01/23 01:19:30;;;;;;;35.50;21.27;;;4.50;99.90;;;;;;5014517;28;20475;-56
2023/01/23 01:21:57;;;;;;;32.73;19.83;;;4.60;99.90;;;;;;5013993;28;20482;-55
2023/01/23 01:24:25;;;;;;;31.17;20.50;;;4.60;99.90;;;;;;5014085;28;20915;-56
2023/01/23 01:26:52;;;;;;;29.83;20.83;;;4.50;99.90;;;;;;5013900;28;21016;-56
2023/01/23 01:29:18;;;;;;;34.23;20.90;;;4.50;99.90;;;;;;5014140;28;20454;-55
2023/01/23 01:31:45;;;;;;;30.10;19.50;;;4.50;99.90;;;;;;5014132;28;20455;-56
2023/01/23 01:34:12;;;;;;;31.10;20.50;;;4.60;99.90;;;;;;5013898;28;20447;-56
2023/01/23 01:36:40;;;;;;;32.00;20.00;;;4.50;99.90;;;;;;5014015;28;20560;-55
2023/01/23 01:39:07;;;;;;;31.50;20.07;;;4.50;99.90;;;;;;5014007;28;20458;-56
2023/01/23 01:41:34;;;;;;;31.80;19.37;;;4.60;99.90;;;;;;5014119;28;20819;-56
2023/01/23 01:44:01;;;;;;;31.07;20.23;;;4.50;99.90;;;;;;5013666;28;20496;-55
2023/01/23 01:46:29;;;;;;;32.97;20.63;;;4.50;99.90;;;;;;5013707;28;20943;-56
2023/01/23 01:49:09;;;;;;;31.80;21.23;;;4.60;99.90;;;;;;5013900;28;20470;-56
2023/01/23 01:51:40;;;;;;;29.67;19.97;;;4.60;99.90;;;;;;5013874;28;20437;-56
2023/01/23 01:54:14;;;;;;;35.23;22.00;;;4.50;99.90;;;;;;5013984;28;20537;-56
2023/01/23 01:56:45;;;;;;;35.77;20.97;;;4.50;99.90;;;;;;5013571;28;20435;-56
2023/01/23 01:59:13;;;;;;;37.77;21.43;;;4.50;99.90;;;;;;5013918;28;20443;-56
2023/01/23 02:01:43;;;;;;;35.97;21.00;;;4.50;99.90;;;;;;5012793;28;20455;-56
2023/01/23 02:04:10;;;;;;;39.53;23.00;;;4.50;99.90;;;;;;5013818;28;20448;-56
2023/01/23 02:06:36;;;;;;;35.00;22.20;;;4.50;99.90;;;;;;5013590;28;20876;-56
2023/01/23 02:09:08;;;;;;;32.93;20.63;;;4.50;99.90;;;;;;5013450;28;20455;-56
2023/01/23 02:11:36;;;;;;;35.43;22.10;;;4.50;99.90;;;;;;5013384;28;20911;-56
2023/01/23 02:14:03;;;;;;;43.73;23.53;;;4.50;99.90;;;;;;5013357;28;20910;-56
2023/01/23 02:16:38;;;;;;;38.47;23.10;;;4.50;99.90;;;;;;5013636;28;20454;-56
2023/01/23 02:19:13;;;;;;;36.47;21.13;;;4.50;99.90;;;;;;5013581;28;20967;-56
2023/01/23 02:21:43;;;;;;;38.13;21.57;;;4.50;99.90;;;;;;5013201;28;20912;-56
2023/01/23 02:24:18;;;;;;;32.70;19.80;;;4.50;99.90;;;;;;5013261;28;20437;-56
2023/01/23 02:26:47;;;;;;;28.07;19.50;;;4.50;99.90;;;;;;5013578;28;20442;-56
2023/01/23 02:29:15;;;;;;;32.03;20.03;;;4.50;99.90;;;;;;5013510;28;20431;-55
2023/01/23 02:31:43;;;;;;;27.70;18.57;;;4.50;99.90;;;;;;5013504;28;20477;-56
2023/01/23 02:34:12;;;;;;;30.63;18.83;;;4.50;99.90;;;;;;5013454;28;20457;-56
2023/01/23 02:36:40;;;;;;;28.43;18.93;;;4.50;99.90;;;;;;5013481;28;20472;-56
2023/01/23 02:39:10;;;;;;;27.33;19.03;;;4.50;99.90;;;;;;5013479;28;20844;-56
2023/01/23 02:41:40;;;;;;;29.03;19.77;;;4.50;99.90;;;;;;5013343;28;20902;-56
2023/01/23 02:44:15;;;;;;;33.50;20.60;;;4.50;99.90;;;;;;5013212;28;20463;-56
2023/01/23 02:46:42;;;;;;;29.90;19.17;;;4.50;99.90;;;;;;5013434;28;20433;-55
2023/01/23 02:49:09;;;;;;;27.83;18.63;;;4.50;99.90;;;;;;5013396;28;20453;-56
2023/01/23 02:51:36;;;;;;;25.80;19.30;;;4.50;99.90;;;;;;5013264;28;20461;-56
2023/01/23 02:54:03;;;;;;;33.10;20.37;;;4.50;99.90;;;;;;5013282;28;20454;-56
2023/01/23 02:56:30;;;;;;;28.33;19.43;;;4.50;99.90;;;;;;5013420;28;20458;-55
2023/01/23 03:01:42;;;;;;;31.67;20.27;;;4.50;99.90;;;;;;5013502;28;20439;-56
2023/01/23 03:04:08;;;;;;;26.80;18.70;;;4.50;99.90;;;;;;5013217;28;20451;-56
2023/01/23 03:06:37;;;;;;;27.40;19.97;;;4.50;99.90;;;;;;5013183;28;20451;-56
2023/01/23 03:09:09;;;;;;;26.90;19.97;;;4.50;99.90;;;;;;5012741;28;21022;-56
2023/01/23 03:11:38;;;;;;;31.47;20.10;;;4.50;99.90;;;;;;5013274;28;20454;-56
2023/01/23 03:14:06;;;;;;;29.43;20.83;;;4.60;99.90;;;;;;5016671;28;20450;-55
2023/01/23 03:16:34;;;;;;;28.57;19.23;;;4.50;99.90;;;;;;5016782;28;20465;-55
2023/01/23 03:19:06;;;;;;;28.70;20.00;;;4.50;99.90;;;;;;5016437;28;21036;-56
2023/01/23 03:21:34;;;;;;;28.30;20.23;;;4.50;99.90;;;;;;5016530;28;20446;-55
2023/01/23 03:24:00;;;;;;;30.40;20.30;;;4.50;99.90;;;;;;5016607;28;20814;-56
2023/01/23 03:26:28;;;;;;;24.83;17.70;;;4.50;99.90;;;;;;5016273;28;20447;-56
2023/01/23 03:31:39;;;;;;;29.83;19.40;;;4.50;99.90;;;;;;5016157;28;20502;-55
2023/01/23 03:34:07;;;;;;;28.00;20.80;;;4.50;99.90;;;;;;5016215;28;20921;-55
2023/01/23 03:36:36;;;;;;;28.40;20.40;;;4.40;99.90;;;;;;5016523;28;20457;-55
2023/01/23 03:41:48;;;;;;;30.87;19.60;;;4.50;99.90;;;;;;5016343;28;20403;-55
2023/01/23 03:44:17;;;;;;;28.47;20.43;;;4.40;99.90;;;;;;5015970;28;20491;-55
2023/01/23 03:46:44;;;;;;;29.23;20.60;;;4.40;99.90;;;;;;5016144;28;20454;-56
2023/01/23 03:49:12;;;;;;;28.50;20.70;;;4.40;99.90;;;;;;5016073;28;20486;-55
2023/01/23 03:51:39;;;;;;;31.40;21.30;;;4.40;99.90;;;;;;5016534;28;20460;-56
2023/01/23 03:54:05;;;;;;;26.73;18.47;;;4.40;99.90;;;;;;5016073;28;20487;-56
2023/01/23 03:56:32;;;;;;;28.03;19.90;;;4.40;99.90;;;;;;5015980;28;20455;-56
2023/01/23 03:58:59;;;;;;;27.77;18.33;;;4.40;99.90;;;;;;5015671;28;20455;-56
2023/01/23 04:01:26;;;;;;;24.33;18.30;;;4.40;99.90;;;;;;5015902;28;20458;-56
2023/01/23 04:03:52;;;;;;;23.60;16.70;;;4.30;99.90;;;;;;5015827;28;20497;-55
2023/01/23 04:06:21;;;;;;;24.27;17.80;;;4.30;99.90;;;;;;5015575;28;20454;-55
2023/01/23 04:08:47;;;;;;;25.87;18.63;;;4.30;99.90;;;;;;5016495;28;20533;-55
2023/01/23 04:11:14;;;;;;;26.83;18.20;;;4.30;99.90;;;;;;5015618;28;20500;-55
2023/01/23 04:13:41;;;;;;;23.87;16.27;;;4.20;99.90;;;;;;5015586;28;20477;-56
2023/01/23 04:16:08;;;;;;;26.90;18.33;;;4.20;99.90;;;;;;5015810;28;20458;-55
2023/01/23 04:18:34;;;;;;;31.80;18.17;;;4.20;99.90;;;;;;5015366;28;20939;-56
2023/01/23 04:21:01;;;;;;;26.50;18.40;;;4.20;99.90;;;;;;5015316;28;20479;-54
2023/01/23 04:23:29;;;;;;;24.43;17.73;;;4.20;99.90;;;;;;5014217;28;21013;-57
2023/01/23 04:25:56;;;;;;;25.33;18.63;;;4.20;99.90;;;;;;5016299;28;20466;-54
2023/01/23 04:28:23;;;;;;;24.10;17.33;;;4.20;99.90;;;;;;5015430;28;20539;-55
2023/01/23 04:30:50;;;;;;;24.83;17.53;;;4.20;99.90;;;;;;5015517;28;20465;-55
2023/01/23 04:33:17;;;;;;;25.27;18.80;;;4.20;99.90;;;;;;5015378;28;20558;-55
2023/01/23 04:35:50;;;;;;;25.03;17.43;;;4.20;99.90;;;;;;5015321;28;20457;-56
2023/01/23 04:38:17;;;;;;;26.87;18.47;;;4.20;99.90;;;;;;5015325;28;20627;-56
2023/01/23 04:40:46;;;;;;;26.90;18.90;;;4.20;99.90;;;;;;5015354;28;20453;-56
2023/01/23 04:43:13;;;;;;;25.00;17.20;;;4.20;99.90;;;;;;5014757;28;20494;-56
2023/01/23 04:45:40;;;;;;;24.27;16.87;;;4.30;99.90;;;;;;5015115;28;20464;-56
2023/01/23 04:48:06;;;;;;;23.23;16.03;;;4.20;99.90;;;;;;5015034;28;20497;-56
2023/01/23 04:50:33;;;;;;;24.17;17.23;;;4.30;99.90;;;;;;5015283;28;20461;-56
2023/01/23 04:53:00;;;;;;;20.83;15.73;;;4.30;99.90;;;;;;5015412;28;20477;-56
2023/01/23 04:55:27;;;;;;;24.70;17.80;;;4.30;99.90;;;;;;5015742;28;20451;-56
2023/01/23 04:57:55;;;;;;;23.77;17.60;;;4.30;99.90;;;;;;5015287;28;20454;-55
2023/01/23 05:00:22;;;;;;;21.67;17.77;;;4.30;99.90;;;;;;5015305;28;20482;-55
2023/01/23 05:02:50;;;;;;;21.17;16.27;;;4.30;99.90;;;;;;5015542;28;20470;-56
2023/01/23 05:05:19;;;;;;;24.77;17.27;;;4.30;99.90;;;;;;5015667;28;20467;-56
2023/01/23 05:07:46;;;;;;;21.63;16.97;;;4.40;99.90;;;;;;5016226;28;20487;-56
2023/01/23 05:10:14;;;;;;;23.50;17.53;;;4.30;99.90;;;;;;5016651;28;20461;-55
2023/01/23 05:12:41;;;;;;;22.13;16.30;;;4.40;99.90;;;;;;5015582;28;20501;-55
2023/01/23 05:15:11;;;;;;;22.03;16.57;;;4.40;99.90;;;;;;5014843;28;20453;-55
2023/01/23 05:17:37;;;;;;;23.27;16.43;;;4.40;99.90;;;;;;5014807;28;20450;-56
2023/01/23 05:20:05;;;;;;;21.37;16.17;;;4.30;99.90;;;;;;5014633;28;20455;-56
2023/01/23 05:22:32;;;;;;;21.57;15.53;;;4.30;99.90;;;;;;5014820;28;20469;-56
2023/01/23 05:24:59;;;;;;;21.97;15.40;;;4.30;99.90;;;;;;5014976;28;20460;-56
2023/01/23 05:27:25;;;;;;;20.83;16.67;;;4.30;99.90;;;;;;5014239;28;20457;-56
2023/01/23 05:29:52;;;;;;;23.53;17.60;;;4.30;99.90;;;;;;5014365;28;20490;-56
2023/01/23 05:32:20;;;;;;;22.10;13.83;;;4.20;99.90;;;;;;5014413;28;20474;-56
2023/01/23 05:34:47;;;;;;;20.80;15.73;;;4.20;99.90;;;;;;5014153;28;20464;-56
2023/01/23 05:37:14;;;;;;;23.67;17.00;;;4.20;99.90;;;;;;5014238;28;20455;-54
2023/01/23 05:39:40;;;;;;;20.53;15.97;;;4.20;99.90;;;;;;5014379;28;20458;-56
2023/01/23 05:42:07;;;;;;;19.40;15.67;;;4.20;99.90;;;;;;5014057;28;20872;-56
2023/01/23 05:44:34;;;;;;;22.57;16.77;;;4.10;99.90;;;;;;5014143;28;20435;-56
2023/01/23 05:47:00;;;;;;;22.43;16.00;;;4.10;99.90;;;;;;5014237;28;20454;-56
2023/01/23 05:49:30;;;;;;;22.90;16.33;;;4.10;99.90;;;;;;5020907;28;20487;-54
2023/01/23 05:51:57;;;;;;;22.30;15.97;;;4.00;99.90;;;;;;5026651;28;20468;-55
2023/01/23 05:54:23;;;;;;;25.63;15.87;;;4.00;99.90;;;;;;5016368;28;20457;-56
2023/01/23 05:56:50;;;;;;;19.90;16.13;;;4.00;99.90;;;;;;5013869;28;20455;-55
2023/01/23 05:59:17;;;;;;;21.40;15.33;;;4.00;99.90;;;;;;5013925;28;20460;-56
2023/01/23 06:01:43;;;;;;;22.20;15.70;;;4.00;99.90;;;;;;5013426;28;20958;-55
2023/01/23 06:04:11;;;;;;;22.83;16.70;;;4.00;99.90;;;;;;5013477;28;20967;-56
2023/01/23 06:06:39;;;;;;;24.23;17.03;;;4.00;99.90;;;;;;5013834;28;20475;-56
2023/01/23 06:09:06;;;;;;;22.53;17.20;;;4.00;99.90;;;;;;5014015;28;20488;-56
2023/01/23 06:11:33;;;;;;;24.10;16.60;;;4.00;99.90;;;;;;5013356;28;20455;-56
2023/01/23 06:14:00;;;;;;;23.00;16.47;;;4.00;99.90;;;;;;5013711;28;20458;-55
2023/01/23 06:16:27;;;;;;;23.90;17.03;;;4.00;99.90;;;;;;5013533;28;20451;-56
2023/01/23 06:18:54;;;;;;;24.60;17.80;;;3.90;99.90;;;;;;5013463;28;20444;-56
2023/01/23 06:21:21;;;;;;;25.33;16.77;;;4.00;99.90;;;;;;5013615;28;20489;-56
2023/01/23 06:23:49;;;;;;;24.80;17.67;;;4.00;99.90;;;;;;5013275;28;20478;-56
2023/01/23 06:26:15;;;;;;;24.80;17.70;;;4.00;99.90;;;;;;5014305;28;20462;-56
2023/01/23 06:28:42;;;;;;;26.20;18.60;;;4.00;99.90;;;;;;5013555;28;20490;-56
2023/01/23 06:31:09;;;;;;;23.37;17.30;;;4.00;99.90;;;;;;5013501;28;20464;-56
2023/01/23 06:33:36;;;;;;;20.47;15.83;;;4.00;99.90;;;;;;5013429;28;20471;-56
2023/01/23 06:36:05;;;;;;;23.60;17.37;;;4.00;99.90;;;;;;5014460;28;20446;-56
2023/01/23 06:38:32;;;;;;;22.70;15.40;;;4.00;99.90;;;;;;5013430;28;20458;-56
2023/01/23 06:41:01;;;;;;;23.77;16.97;;;4.00;99.90;;;;;;5014552;28;20449;-56
2023/01/23 06:43:27;;;;;;;25.47;18.30;;;4.10;99.90;;;;;;5013295;28;20489;-55
2023/01/23 06:45:54;;;;;;;25.07;17.50;;;4.10;99.90;;;;;;5013429;28;20457;-56
2023/01/23 06:48:21;;;;;;;25.20;17.80;;;4.10;99.90;;;;;;5017231;28;20490;-56
2023/01/23 06:50:48;;;;;;;24.50;17.17;;;4.10;99.90;;;;;;5016880;28;20959;-56
2023/01/23 06:53:15;;;;;;;25.20;18.43;;;4.10;99.90;;;;;;5017244;28;20479;-56
2023/01/23 06:55:42;;;;;;;23.50;18.20;;;4.10;99.90;;;;;;5017352;28;20439;-55
2023/01/23 06:58:11;;;;;;;23.40;16.30;;;4.10;99.90;;;;;;5016981;28;20974;-55
2023/01/23 07:00:38;;;;;;;24.60;18.27;;;4.00;99.90;;;;;;5016976;28;20476;-55
2023/01/23 07:03:05;;;;;;;26.13;18.40;;;4.10;99.90;;;;;;5016931;28;20469;-56
2023/01/23 07:05:35;;;;;;;26.50;18.10;;;4.10;99.90;;;;;;5016997;28;20453;-56
2023/01/23 07:08:02;;;;;;;26.87;18.53;;;4.10;99.90;;;;;;5016722;28;20438;-55
2023/01/23 07:10:31;;;;;;;27.03;19.17;;;4.10;99.90;;;;;;5016467;28;20950;-56
2023/01/23 07:12:57;;;;;;;30.30;20.80;;;4.10;99.90;;;;;;5016707;28;20566;-55
2023/01/23 07:15:25;;;;;;;30.33;20.90;;;4.10;99.90;;;;;;5016772;28;20464;-56
2023/01/23 07:17:52;;;;;;;27.70;19.07;;;4.10;99.90;;;;;;5016717;28;20451;-56
2023/01/23 07:20:19;;;;;;;30.07;20.63;;;4.10;99.90;;;;;;5017302;28;20815;-54
2023/01/23 07:22:46;;;;;;;28.57;18.63;;;4.10;99.90;;;;;;5036498;28;20471;-56
2023/01/23 07:25:13;;;;;;;28.63;18.80;;;4.10;99.90;;;;;;5037125;28;20456;-56
2023/01/23 07:27:39;;;;;;;24.00;17.53;;;4.00;99.90;;;;;;5036047;28;20453;-55
2023/01/23 07:30:07;;;;;;;28.43;21.47;;;4.10;99.90;;;;;;5035919;28;20489;-56
2023/01/23 07:32:35;;;;;;;35.00;21.43;;;4.10;99.90;;;;;;5036837;28;20467;-56
2023/01/23 07:35:02;;;;;;;24.30;18.40;;;4.10;99.90;;;;;;5035873;28;20855;-55
2023/01/23 07:37:29;;;;;;;27.77;18.37;;;4.10;99.90;;;;;;5036204;28;20445;-56
2023/01/23 07:39:55;;;;;;;26.27;17.57;;;4.10;99.90;;;;;;5036067;28;20456;-55
2023/01/23 07:42:22;;;;;;;25.63;17.83;;;4.20;99.90;;;;;;5035722;28;20490;-56
2023/01/23 07:44:49;;;;;;;26.57;16.73;;;4.20;99.90;;;;;;5035751;28;20441;-57
2023/01/23 07:47:15;;;;;;;23.50;16.80;;;4.20;99.90;;;;;;5036081;28;20457;-56
2023/01/23 07:49:44;;;;;;;22.63;16.23;;;4.20;99.90;;;;;;5035604;28;20484;-56
2023/01/23 07:52:10;;;;;;;28.17;18.30;;;4.20;99.90;;;;;;5036107;28;20473;-55
2023/01/23 07:54:37;;;;;;;24.30;18.17;;;4.20;99.90;;;;;;5035875;28;20451;-56
2023/01/23 07:57:04;;;;;;;27.90;20.20;;;4.20;99.90;;;;;;5035831;28;20781;-56
2023/01/23 07:59:30;;;;;;;22.20;16.97;;;4.30;99.90;;;;;;5035664;28;20443;-56
2023/01/23 08:01:57;;;;;;;26.00;17.53;;;4.30;99.90;;;;;;5035556;28;20472;-55
2023/01/23 08:04:24;;;;;;;23.80;17.07;;;4.30;99.90;;;;;;5035400;28;20518;-55
2023/01/23 08:06:52;;;;;;;21.90;16.53;;;4.20;99.90;;;;;;5035567;28;20457;-56
2023/01/23 08:09:19;;;;;;;24.33;17.53;;;4.30;99.90;;;;;;5035155;28;21004;-56
2023/01/23 08:11:45;;;;;;;28.80;20.20;;;4.30;99.90;;;;;;5035408;28;20462;-56
2023/01/23 08:14:12;;;;;;;27.53;19.90;;;4.30;99.90;;;;;;5035327;28;20450;-57
2023/01/23 08:16:39;;;;;;;23.90;18.90;;;4.30;99.90;;;;;;5035381;28;20461;-56
2023/01/23 08:19:07;;;;;;;22.30;16.33;;;4.30;99.90;;;;;;5035316;28;20433;-56
2023/01/23 08:21:33;;;;;;;20.67;15.10;;;4.40;99.90;;;;;;5035153;28;20505;-56
2023/01/23 08:24:03;;;;;;;21.03;15.03;;;4.40;99.90;;;;;;5035335;28;20433;-56
2023/01/23 08:26:30;;;;;;;20.20;15.80;;;4.40;99.90;;;;;;5035167;28;20465;-56
2023/01/23 08:28:57;;;;;;;19.57;16.27;;;4.40;99.90;;;;;;5035078;28;20489;-56
2023/01/23 08:31:24;;;;;;;18.30;14.93;;;4.50;99.90;;;;;;5035112;28;20442;-55
2023/01/23 08:33:51;;;;;;;22.50;16.23;;;4.50;99.90;;;;;;5035071;28;20480;-56
2023/01/23 08:36:18;;;;;;;20.20;15.63;;;4.50;99.90;;;;;;5034996;28;20480;-56
2023/01/23 08:38:44;;;;;;;16.63;13.27;;;4.60;99.90;;;;;;5033801;28;20451;-56
2023/01/23 08:41:13;;;;;;;20.67;13.50;;;4.60;99.90;;;;;;5034913;28;20448;-55
2023/01/23 08:43:41;;;;;;;21.57;15.60;;;4.60;99.90;;;;;;5034632;28;20892;-56
2023/01/23 08:46:08;;;;;;;18.93;13.90;;;4.60;99.90;;;;;;5034859;28;20461;-56
2023/01/23 08:48:35;;;;;;;16.57;13.43;;;4.70;99.90;;;;;;5034689;28;20438;-56
2023/01/23 08:51:04;;;;;;;19.60;14.87;;;4.70;99.90;;;;;;5034803;28;20432;-56
2023/01/23 08:53:32;;;;;;;19.07;14.50;;;4.70;99.90;;;;;;5034528;28;20481;-55
2023/01/23 08:56:00;;;;;;;19.63;14.37;;;4.70;99.90;;;;;;5034692;28;20441;-56
2023/01/23 08:58:28;;;;;;;22.30;14.63;;;4.80;99.90;;;;;;5034635;28;20834;-56
2023/01/23 09:00:55;;;;;;;25.37;16.50;;;4.80;99.90;;;;;;5034573;28;20457;-56
2023/01/23 09:03:22;;;;;;;19.70;14.50;;;4.80;99.90;;;;;;5034063;28;20981;-55
2023/01/23 09:05:49;;;;;;;16.13;12.80;;;4.90;99.90;;;;;;5034971;28;20453;-56
2023/01/23 09:08:15;;;;;;;19.80;13.77;;;4.80;99.90;;;;;;5033411;28;20448;-56
2023/01/23 09:10:42;;;;;;;18.70;13.70;;;4.90;99.90;;;;;;5033745;28;20538;-56
2023/01/23 09:13:09;;;;;;;20.10;13.60;;;4.90;99.90;;;;;;5033873;28;20982;-56
2023/01/23 09:15:39;;;;;;;22.37;14.30;;;5.00;99.90;;;;;;5034251;28;20454;-56
2023/01/23 09:18:06;;;;;;;18.33;12.97;;;5.00;99.90;;;;;;5033894;28;20977;-56
2023/01/23 09:20:33;;;;;;;18.03;14.17;;;5.00;99.90;;;;;;5034133;28;20437;-54
2023/01/23 09:23:00;;;;;;;21.00;13.73;;;5.10;99.90;;;;;;5034040;28;20471;-56
2023/01/23 09:25:26;;;;;;;20.13;14.33;;;5.10;99.90;;;;;;5034096;28;20450;-56
2023/01/23 09:27:53;;;;;;;17.73;12.73;;;5.20;99.90;;;;;;5034307;28;20451;-56
2023/01/23 09:30:20;;;;;;;18.20;13.70;;;5.20;99.90;;;;;;5033522;28;20998;-55
2023/01/23 09:32:48;;;;;;;21.37;15.00;;;5.30;99.90;;;;;;5033919;28;20476;-56
2023/01/23 09:35:15;;;;;;;20.27;13.30;;;5.30;99.90;;;;;;5033942;28;20457;-56
2023/01/23 09:37:59;;;;;;;18.53;13.73;;;5.30;99.90;;;;;;5032698;28;20462;-56
2023/01/23 09:40:28;;;;;;;17.87;13.20;;;5.40;99.90;;;;;;5033573;28;20918;-55
2023/01/23 09:42:58;;;;;;;18.57;13.17;;;5.50;99.90;;;;;;5033544;28;20481;-56
2023/01/23 09:45:27;;;;;;;19.57;13.30;;;5.50;99.90;;;;;;5033745;28;20453;-56
2023/01/23 09:48:02;;;;;;;17.77;12.10;;;5.60;99.90;;;;;;5033743;28;20450;-56
2023/01/23 09:50:33;;;;;;;17.70;13.03;;;5.60;99.90;;;;;;5033593;28;20470;-56
2023/01/23 09:53:08;;;;;;;18.27;13.53;;;5.60;99.90;;;;;;5033642;28;20489;-56
2023/01/23 09:55:41;;;;;;;19.53;13.37;;;5.60;99.90;;;;;;5033205;28;20439;-56
2023/01/23 09:58:17;;;;;;;19.07;13.23;;;5.70;99.90;;;;;;5033603;28;20431;-56
2023/01/23 10:00:45;;;;;;;19.37;13.07;;;5.70;99.90;;;;;;5033577;28;20508;-56
2023/01/23 10:03:15;;;;;;;18.80;13.67;;;5.70;99.90;;;;;;5033496;28;20478;-56
2023/01/23 10:05:47;;;;;;;22.37;15.47;;;5.80;99.90;;;;;;5033450;28;20456;-56
2023/01/23 10:08:24;;;;;;;20.77;14.53;;;5.90;99.90;;;;;;5033468;28;20453;-56
2023/01/23 10:10:57;;;;;;;21.20;14.40;;;5.90;99.90;;;;;;5033345;28;20495;-56
2023/01/23 10:13:36;;;;;;;17.23;13.10;;;5.90;99.80;;;;;;5033362;28;20462;-56
2023/01/23 10:16:18;;;;;;;19.77;14.10;;;6.00;99.30;;;;;;5033539;28;20488;-57
2023/01/23 10:18:54;;;;;;;18.60;13.30;;;6.00;99.20;;;;;;5033502;28;20484;-57
2023/01/23 10:21:28;;;;;;;21.50;14.43;;;6.10;99.10;;;;;;5022952;28;20515;-56
2023/01/23 10:24:04;;;;;;;20.90;15.13;;;6.10;98.90;;;;;;5017788;28;20445;-56
2023/01/23 10:26:34;;;;;;;15.83;13.30;;;6.10;99.00;;;;;;5017470;28;20916;-57
2023/01/23 10:29:10;;;;;;;19.73;14.73;;;6.20;99.10;;;;;;5017354;28;20451;-57
2023/01/23 10:31:41;;;;;;;23.53;14.70;;;6.20;99.10;;;;;;5017322;28;20922;-57
2023/01/23 10:34:23;;;;;;;21.63;14.67;;;6.30;99.00;;;;;;5017492;28;20451;-57
2023/01/23 10:37:03;;;;;;;20.60;15.63;;;6.30;98.90;;;;;;5017394;28;20947;-57
2023/01/23 10:39:37;;;;;;;21.77;14.17;;;6.30;98.90;;;;;;5018469;28;20442;-56
2023/01/23 10:42:10;;;;;;;20.77;14.67;;;6.40;98.90;;;;;;5017258;28;20481;-56
2023/01/23 10:44:36;;;;;;;22.27;14.70;;;6.40;98.80;;;;;;5017109;28;20944;-56
2023/01/23 10:47:12;;;;;;;22.90;15.47;;;6.50;98.60;;;;;;5017307;28;20451;-57
2023/01/23 10:49:45;;;;;;;19.70;13.57;;;6.50;98.40;;;;;;5017264;28;20617;-57
2023/01/23 10:52:29;;;;;;;21.07;13.80;;;6.60;98.30;;;;;;5017182;28;20482;-57
2023/01/23 10:54:56;;;;;;;19.30;13.53;;;6.60;98.10;;;;;;5017229;28;20490;-57
2023/01/23 10:57:25;;;;;;;18.73;13.40;;;6.70;98.00;;;;;;5017233;28;20784;-56
2023/01/23 10:59:56;;;;;;;17.57;13.83;;;6.70;97.90;;;;;;5017660;28;20832;-56
2023/01/23 11:02:28;;;;;;;18.23;11.93;;;6.80;97.60;;;;;;5016972;28;21014;-55
2023/01/23 11:04:57;;;;;;;18.20;13.20;;;6.80;97.50;;;;;;5015897;28;20428;-56
2023/01/23 11:07:27;;;;;;;17.47;13.57;;;6.80;97.40;;;;;;5016728;28;20943;-57
2023/01/23 11:09:56;;;;;;;18.33;13.00;;;6.80;97.10;;;;;;5016842;28;20488;-57
2023/01/23 11:12:25;;;;;;;18.77;13.33;;;6.80;96.90;;;;;;5016715;28;20475;-56
2023/01/23 11:15:10;;;;;;;17.07;13.00;;;6.80;96.90;;;;;;5016483;28;20967;-57
2023/01/23 11:17:38;;;;;;;18.20;13.70;;;6.80;96.90;;;;;;5016763;28;20442;-57
2023/01/23 11:20:22;;;;;;;17.90;12.63;;;6.80;96.90;;;;;;5016847;28;20443;-57
2023/01/23 11:23:01;;;;;;;21.03;13.50;;;6.80;96.90;;;;;;5016591;28;20472;-56
2023/01/23 11:25:30;;;;;;;18.17;12.50;;;6.80;97.00;;;;;;5016729;28;20781;-57
2023/01/23 11:27:58;;;;;;;20.70;13.90;;;6.80;97.00;;;;;;5016473;28;20463;-57
2023/01/23 11:30:44;;;;;;;18.17;12.70;;;6.90;97.00;;;;;;5016731;28;20914;-56
2023/01/23 11:33:18;;;;;;;19.30;12.93;;;6.90;96.90;;;;;;5016576;28;20479;-57
2023/01/23 11:35:57;;;;;;;20.87;12.70;;;6.90;96.80;;;;;;5016971;28;20487;-57
2023/01/23 11:38:28;;;;;;;17.63;13.00;;;7.00;96.60;;;;;;5017283;28;20796;-57
2023/01/23 11:40:54;;;;;;;17.13;12.50;;;7.00;96.50;;;;;;5017751;28;20429;-57
2023/01/23 11:43:21;;;;;;;18.00;12.53;;;7.00;96.40;;;;;;5015943;28;20476;-57
2023/01/23 11:46:29;;;;;;;18.40;13.03;;;7.00;96.30;;;;;;5016249;28;20494;-57
2023/01/23 11:49:11;;;;;;;18.63;14.00;;;7.00;96.10;;;;;;5016139;28;20453;-57
2023/01/23 11:51:49;;;;;;;16.63;12.10;;;7.00;95.80;;;;;;5016686;28;20474;-56
2023/01/23 11:54:49;;;;;;;16.97;12.40;;;7.00;95.50;;;;;;5016724;28;20447;-57
2023/01/23 11:57:23;;;;;;;16.17;12.00;;;7.00;95.40;;;;;;5016110;28;20442;-58
2023/01/23 12:00:02;;;;;;;15.43;12.03;;;7.00;95.40;;;;;;5015777;28;20780;-55
2023/01/23 12:03:19;;;;;;;18.50;12.57;;;7.10;95.50;;;;;;5015823;28;20477;-56
2023/01/23 12:06:08;;;;;;;16.80;12.77;;;7.00;95.40;;;;;;5015629;28;20927;-55
2023/01/23 12:08:42;;;;;;;17.40;13.40;;;7.10;94.90;;;;;;5015805;28;20913;-55
2023/01/23 12:11:15;;;;;;;17.63;12.60;;;7.00;94.80;;;;;;5015687;28;20484;-55
2023/01/23 12:13:59;;;;;;;16.47;12.73;;;7.10;94.80;;;;;;5015681;28;20534;-55
2023/01/23 12:16:47;;;;;;;18.10;11.83;;;7.00;95.10;;;;;;5015675;28;20432;-55
2023/01/23 12:19:27;;;;;;;17.77;12.23;;;7.00;94.90;;;;;;5015656;28;20432;-55
2023/01/23 12:22:04;;;;;;;15.40;12.47;;;7.00;95.00;;;;;;5014335;28;20468;-56
2023/01/23 12:24:45;;;;;;;15.70;12.13;;;7.00;94.90;;;;;;5015494;28;20455;-57
2023/01/23 12:27:21;;;;;;;14.13;11.53;;;7.00;94.80;;;;;;5015458;28;20436;-56
2023/01/23 12:30:11;;;;;;;16.03;13.13;;;7.00;95.00;;;;;;5015395;28;20440;-56
2023/01/23 12:32:52;;;;;;;13.90;11.80;;;7.10;94.90;;;;;;5014962;28;20476;-56
2023/01/23 12:35:36;;;;;;;16.17;11.47;;;7.10;94.90;;;;;;5015375;28;20447;-56
2023/01/23 12:38:15;;;;;;;15.20;11.60;;;7.10;95.00;;;;;;5015309;28;20838;-55
2023/01/23 12:40:47;;;;;;;15.30;12.00;;;7.20;94.80;;;;;;5015324;28;20441;-56
2023/01/23 12:43:18;;;;;;;15.93;11.80;;;7.20;94.70;;;;;;5014809;28;20481;-56
2023/01/23 12:45:49;;;;;;;15.77;11.57;;;7.30;94.60;;;;;;5014265;28;20444;-56
2023/01/23 12:48:22;;;;;;;16.67;11.53;;;7.40;94.30;;;;;;5013947;28;20449;-56
2023/01/23 12:50:53;;;;;;;13.30;10.23;;;7.50;93.70;;;;;;5014894;28;20484;-57
2023/01/23 12:53:22;;;;;;;13.77;11.10;;;7.50;93.70;;;;;;5013765;28;20473;-57
2023/01/23 12:55:59;;;;;;;13.57;10.87;;;7.60;92.80;;;;;;5014872;28;20869;-57